Frances, Washington
Current Conditions -  °F | °C
As of 7:39 AM on Thursday 23 Oct 2014 (Local Time) from KHQM Reporting Station
Moderate Rain Moderate Rain  
Wind Chill: 52°   Ceiling: 2500
Heat Index: 52°   Visibility: 2.5mi
Dew Point: 50°   Wind: 7mph
Humidity: 93%   Direction: 250°WSW
Pressure: 29.72"   Gusts: NA
Location:  46.6563°N, 123.58°W
Report Text: KHQM 231439Z AUTO 25006KT 2 1/2SM RA BR SCT013 BKN025 OVC050 11/10 A2972 RMK AO2 P0007 T01110100
Loading
Personal Weather Stations






























Interactive Weather Map
Tropical Storm Tracking
New forecast layout! Learn more

10-Day Weather Forecast

Advertisements
Track Severe Weather on mobile